createdAt,value
2016-12-14T04:00:55.283Z,55.35
2016-12-14T04:01:20.858Z,55.07
2016-12-14T04:01:46.430Z,55.35
2016-12-14T04:02:12.021Z,55.45
2016-12-14T04:02:37.588Z,55.35
2016-12-14T04:03:03.205Z,55.45
2016-12-14T04:03:28.770Z,55.07
2016-12-14T04:03:54.383Z,55.07
2016-12-14T04:04:19.952Z,55.35
2016-12-14T04:04:45.512Z,55.26
2016-12-14T04:05:11.052Z,55.07
2016-12-14T04:05:36.633Z,55.16
2016-12-14T04:06:02.181Z,55.16
2016-12-14T04:06:27.746Z,55.35
2016-12-14T04:06:53.346Z,55.55
2016-12-14T04:07:18.983Z,55.07
2016-12-14T04:07:44.534Z,55.26
2016-12-14T04:08:10.100Z,55.35
2016-12-14T04:08:35.666Z,55.07
2016-12-14T04:09:01.336Z,55.07
2016-12-14T04:09:26.881Z,55.26
2016-12-14T04:09:52.442Z,55.26
2016-12-14T04:10:18.034Z,55.35
2016-12-14T04:10:43.580Z,55.45
2016-12-14T04:11:09.176Z,55.45
2016-12-14T04:11:34.770Z,55.26
2016-12-14T04:12:00.322Z,55.35
2016-12-14T04:12:25.987Z,55.35
2016-12-14T04:12:51.535Z,54.87
2016-12-14T04:13:17.107Z,54.87
2016-12-14T04:13:42.759Z,55.26
2016-12-14T04:14:08.391Z,55.26
2016-12-14T04:14:33.987Z,55.26
2016-12-14T04:14:59.544Z,55.45
2016-12-14T04:15:25.129Z,55.26
2016-12-14T04:15:50.689Z,55.35
2016-12-14T04:16:16.250Z,55.35
2016-12-14T04:16:41.818Z,54.87
2016-12-14T04:17:07.482Z,55.16
2016-12-14T04:17:33.086Z,55.07
2016-12-14T04:17:58.637Z,55.26
2016-12-14T04:18:24.209Z,55.45
2016-12-14T04:18:49.750Z,55.35
2016-12-14T04:19:15.300Z,55.26
2016-12-14T04:19:40.884Z,55.07
2016-12-14T04:20:06.447Z,55.26
2016-12-14T04:20:32.007Z,55.45
2016-12-14T04:20:57.677Z,55.26
2016-12-14T04:21:23.239Z,54.97
2016-12-14T04:21:48.792Z,54.87
2016-12-14T04:22:14.424Z,55.07
2016-12-14T04:22:40.106Z,55.07
2016-12-14T04:23:05.543Z,55.16
2016-12-14T04:23:31.101Z,55.07
2016-12-14T04:23:56.659Z,55.16
2016-12-14T04:24:22.220Z,55.07
2016-12-14T04:24:47.842Z,55.26
2016-12-14T04:25:13.404Z,55.16
2016-12-14T04:25:39.083Z,55.16
2016-12-14T04:26:04.661Z,55.35
2016-12-14T04:26:30.271Z,54.87
2016-12-14T04:26:55.830Z,55.07
2016-12-14T04:27:21.396Z,55.16
2016-12-14T04:27:46.957Z,54.87
2016-12-14T04:28:12.510Z,55.07
2016-12-14T04:28:38.084Z,55.07
2016-12-14T04:29:03.687Z,55.07
2016-12-14T04:29:29.327Z,55.16
2016-12-14T04:29:54.885Z,55.16
2016-12-14T04:30:20.446Z,55.07
2016-12-14T04:30:45.994Z,55.07
2016-12-14T04:31:11.549Z,55.16
2016-12-14T04:31:37.117Z,55.26
2016-12-14T04:32:02.847Z,55.07
2016-12-14T04:32:28.414Z,55.26
2016-12-14T04:32:53.980Z,55.26
2016-12-14T04:33:19.537Z,55.16
2016-12-14T04:33:45.097Z,55.35
2016-12-14T04:34:10.700Z,54.87
2016-12-14T04:34:36.263Z,55.26
2016-12-14T04:35:01.833Z,55.26
2016-12-14T04:35:27.404Z,55.07
2016-12-14T04:35:53.063Z,55.26
2016-12-14T04:36:18.606Z,54.87
2016-12-14T04:36:44.151Z,55.07
2016-12-14T04:37:09.747Z,55.35
2016-12-14T04:37:35.396Z,55.16
2016-12-14T04:38:00.964Z,55.26
2016-12-14T04:38:26.526Z,55.67
2016-12-14T04:38:52.211Z,55.93
2016-12-14T04:39:17.845Z,56.05
2016-12-14T04:39:43.410Z,55.87
2016-12-14T04:40:09.020Z,55.87
2016-12-14T04:40:34.590Z,55.87
2016-12-14T04:41:00.164Z,55.87
2016-12-14T04:41:25.731Z,55.96
2016-12-14T04:41:51.272Z,56.15
2016-12-14T04:42:16.823Z,55.29
2016-12-14T04:42:42.379Z,55.48
2016-12-14T04:43:07.929Z,55.38
2016-12-14T04:43:33.484Z,55.48
2016-12-14T04:43:59.044Z,55.29
2016-12-14T04:44:24.601Z,55.07
2016-12-14T04:44:50.200Z,55.09
2016-12-14T04:45:15.753Z,54.71
2016-12-14T04:45:41.308Z,54.42
2016-12-14T04:46:06.867Z,54.61
2016-12-14T04:46:32.425Z,54.8
2016-12-14T04:46:57.986Z,54.13
2016-12-14T04:47:23.563Z,53.84
2016-12-14T04:47:49.126Z,53.53
2016-12-14T04:48:14.691Z,53.65
2016-12-14T04:48:40.246Z,53.74
2016-12-14T04:49:05.884Z,53.74
2016-12-14T04:49:31.446Z,53.45
2016-12-14T04:49:57.003Z,53.65
2016-12-14T04:50:22.557Z,53.36
2016-12-14T04:50:48.145Z,53.17
2016-12-14T04:51:13.712Z,53.17
2016-12-14T04:51:39.256Z,53.27
2016-12-14T04:52:04.833Z,53.17
2016-12-14T04:52:30.437Z,52.97
2016-12-14T04:52:56.006Z,53.17
2016-12-14T04:53:21.551Z,53.36
2016-12-14T04:53:47.112Z,53.07
2016-12-14T04:54:12.667Z,52.66
2016-12-14T04:54:38.300Z,52.97
2016-12-14T04:55:03.905Z,52.97
2016-12-14T04:55:29.469Z,52.87
2016-12-14T04:55:55.125Z,52.97
2016-12-14T04:56:20.691Z,53.07
2016-12-14T04:56:46.240Z,52.4
2016-12-14T04:57:11.938Z,52.2
2016-12-14T04:57:37.518Z,52.4
2016-12-14T04:58:03.072Z,52.3
2016-12-14T04:58:28.713Z,51.92
2016-12-14T04:58:54.357Z,52.01
2016-12-14T04:59:19.912Z,52.11
2016-12-14T04:59:45.485Z,52.3
2016-12-14T05:00:11.136Z,52.27
2016-12-14T05:00:36.688Z,51.62
2016-12-14T05:01:02.247Z,51.62
2016-12-14T05:01:27.954Z,52.08
2016-12-14T05:01:53.520Z,51.92
2016-12-14T05:02:19.111Z,52.3
2016-12-14T05:02:44.663Z,52.11
2016-12-14T05:03:10.224Z,52.11
2016-12-14T05:03:35.864Z,52.27
2016-12-14T05:04:01.408Z,52.01
2016-12-14T05:04:26.975Z,51.92
2016-12-14T05:04:52.524Z,52.08
2016-12-14T05:05:18.072Z,51.98
2016-12-14T05:05:43.655Z,51.72
2016-12-14T05:06:09.213Z,52.08
2016-12-14T05:06:34.774Z,52.01
2016-12-14T05:07:00.346Z,51.92
2016-12-14T05:07:25.896Z,51.92
2016-12-14T05:07:51.495Z,51.72
2016-12-14T05:08:17.058Z,52.3
2016-12-14T05:08:42.604Z,52.2
2016-12-14T05:09:08.253Z,51.62
2016-12-14T05:09:33.872Z,51.53
2016-12-14T05:09:59.447Z,51.53
2016-12-14T05:10:25.039Z,52.01
2016-12-14T05:10:50.596Z,52.11
2016-12-14T05:11:16.150Z,52.78
2016-12-14T05:12:29.725Z,53.27
2016-12-14T05:12:55.279Z,53.17
2016-12-14T05:13:20.871Z,53.36
2016-12-14T05:13:46.446Z,53.27
2016-12-14T05:14:12.091Z,53.94
2016-12-14T05:14:37.743Z,53.94
2016-12-14T05:15:03.310Z,53.84
2016-12-14T05:15:28.865Z,53.27
2016-12-14T05:15:54.415Z,53.55
2016-12-14T05:16:19.968Z,53.45
2016-12-14T05:16:45.534Z,53.23
2016-12-14T05:17:11.097Z,53.27
2016-12-14T05:17:36.732Z,52.78
2016-12-14T05:18:02.292Z,53.27
2016-12-14T05:18:27.851Z,53.07
2016-12-14T05:18:53.405Z,52.59
2016-12-14T05:19:19.064Z,52.69
2016-12-14T05:19:44.626Z,52.78
2016-12-14T05:20:10.172Z,52.87
2016-12-14T05:20:35.713Z,53.07
2016-12-14T05:21:01.281Z,52.3
2016-12-14T05:21:26.834Z,52.2
2016-12-14T05:21:52.419Z,52.3
2016-12-14T05:22:17.983Z,52.01
2016-12-14T05:22:43.529Z,52.11
2016-12-14T05:23:09.188Z,52.4
2016-12-14T05:23:34.735Z,52.69
2016-12-14T05:24:00.287Z,52.01
2016-12-14T05:24:25.856Z,52.01
2016-12-14T05:24:51.449Z,51.92
2016-12-14T05:25:17.015Z,52.11
2016-12-14T05:25:42.583Z,51.92
2016-12-14T05:26:08.144Z,51.92
2016-12-14T05:26:33.704Z,52.01
2016-12-14T05:26:59.318Z,51.72
2016-12-14T05:27:24.881Z,51.43
2016-12-14T05:27:50.420Z,51.89
2016-12-14T05:28:15.966Z,51.89
2016-12-14T05:28:41.517Z,51.89
2016-12-14T05:29:07.210Z,51.89
2016-12-14T05:29:32.762Z,51.79
2016-12-14T05:29:58.324Z,51.62
2016-12-14T05:30:23.966Z,51.41
2016-12-14T05:30:49.516Z,51.5
2016-12-14T05:31:15.073Z,51.31
2016-12-14T05:31:40.597Z,51.72
2016-12-14T05:32:06.180Z,51.79
2016-12-14T05:32:31.745Z,51.7
2016-12-14T05:32:57.355Z,51.72
2016-12-14T05:33:22.904Z,51.31
2016-12-14T05:33:48.471Z,51.6
2016-12-14T05:34:14.032Z,51.5
2016-12-14T05:34:39.640Z,51.41
2016-12-14T05:35:05.208Z,51.5
2016-12-14T05:35:30.785Z,51.6
2016-12-14T05:35:56.351Z,51.6
2016-12-14T05:36:21.908Z,51.12
2016-12-14T05:36:47.468Z,51.12
2016-12-14T05:37:13.022Z,51.12
2016-12-14T05:37:38.564Z,51.21
2016-12-14T05:38:04.440Z,51.02
2016-12-14T05:38:30.011Z,51.21
2016-12-14T05:38:55.667Z,51.02
2016-12-14T05:39:21.241Z,50.73
2016-12-14T05:39:46.792Z,50.83
2016-12-14T05:40:12.366Z,50.73
2016-12-14T05:40:37.940Z,50.93
2016-12-14T05:41:03.475Z,50.93
2016-12-14T05:41:29.042Z,50.54
2016-12-14T05:41:54.588Z,50.83
2016-12-14T05:42:20.132Z,50.73
2016-12-14T05:42:45.735Z,50.73
2016-12-14T05:43:11.353Z,50.63
2016-12-14T05:43:36.926Z,50.63
2016-12-14T05:44:02.479Z,50.83
2016-12-14T05:44:28.031Z,50.93
2016-12-14T05:44:53.591Z,51.21
2016-12-14T05:45:19.145Z,51.5
2016-12-14T05:45:44.702Z,51.21
2016-12-14T05:46:10.267Z,51.79
2016-12-14T05:46:35.819Z,51.7
2016-12-14T05:47:01.455Z,51.7
2016-12-14T05:47:27.008Z,51.6
2016-12-14T05:47:52.663Z,51.98
2016-12-14T05:48:18.278Z,51.89
2016-12-14T05:48:43.819Z,51.89
2016-12-14T05:49:09.361Z,51.7
2016-12-14T05:49:35.121Z,51.89
2016-12-14T05:50:00.689Z,51.79
2016-12-14T05:50:26.243Z,51.6
2016-12-14T05:50:51.802Z,51.5
2016-12-14T05:51:17.380Z,51.5
2016-12-14T05:51:42.952Z,51.7
2016-12-14T05:52:08.518Z,51.6
2016-12-14T05:52:34.080Z,51.12
2016-12-14T05:52:59.624Z,51.5
2016-12-14T05:53:25.220Z,51.6
2016-12-14T05:53:50.781Z,51.7
2016-12-14T05:54:16.325Z,51.79
2016-12-14T05:54:41.939Z,52.08
2016-12-14T05:55:07.593Z,51.89
2016-12-14T05:55:33.171Z,52.3
2016-12-14T05:55:58.809Z,52.3
2016-12-14T05:56:24.368Z,52.2
2016-12-14T05:56:49.925Z,52.3
2016-12-14T05:57:15.483Z,52.3
2016-12-14T05:57:41.053Z,52.2
2016-12-14T05:58:06.603Z,52.49
2016-12-14T05:58:32.207Z,52.49
2016-12-14T05:58:57.830Z,52.4
2016-12-14T05:59:23.416Z,52.37
2016-12-14T05:59:48.969Z,52.69
2016-12-14T06:00:52.256Z,53.17
2016-12-14T06:01:17.828Z,53.36
2016-12-14T06:01:43.372Z,53.74
2016-12-14T06:02:08.977Z,53.84
2016-12-14T06:02:34.550Z,54.1
2016-12-14T06:03:00.123Z,54.03
2016-12-14T06:03:25.667Z,54.42
2016-12-14T06:03:51.470Z,54.61
2016-12-14T06:04:17.026Z,54.8
2016-12-14T06:04:42.679Z,55
2016-12-14T06:05:08.152Z,55.09
2016-12-14T06:05:33.693Z,55.09
2016-12-14T06:05:59.267Z,54.9
2016-12-14T06:06:24.827Z,55.09
2016-12-14T06:06:50.373Z,54.8
2016-12-14T06:07:15.926Z,54.71
2016-12-14T06:07:41.525Z,54.32
2016-12-14T06:08:07.080Z,54.71
2016-12-14T06:08:32.632Z,54.71
2016-12-14T06:08:58.195Z,54.8
2016-12-14T06:09:23.758Z,54.9
2016-12-14T06:09:49.351Z,55.19
2016-12-14T06:10:14.909Z,55.09
2016-12-14T06:10:40.477Z,55.29
2016-12-14T06:11:06.088Z,55.09
2016-12-14T06:11:31.692Z,55.38
2016-12-14T06:11:57.245Z,55.48
2016-12-14T06:12:22.894Z,55.19
2016-12-14T06:12:48.442Z,54.61
2016-12-14T06:13:13.998Z,54.42
2016-12-14T06:13:39.662Z,54.42
2016-12-14T06:14:05.222Z,54.8
2016-12-14T06:14:30.848Z,54.71
2016-12-14T06:14:56.389Z,55.09
2016-12-14T06:15:21.942Z,54.8
2016-12-14T06:15:47.515Z,54.71
2016-12-14T06:16:13.138Z,54.8
2016-12-14T06:16:38.708Z,54.71
2016-12-14T06:17:04.253Z,54.71
2016-12-14T06:17:29.834Z,55.19
2016-12-14T06:17:55.392Z,55.09
2016-12-14T06:18:20.955Z,55.19
2016-12-14T06:18:46.508Z,54.9
2016-12-14T06:19:12.063Z,54.03
2016-12-14T06:19:37.619Z,54.71
2016-12-14T06:20:03.186Z,55.19
2016-12-14T06:20:28.744Z,54.9
2016-12-14T06:20:54.296Z,55.19
2016-12-14T06:21:19.856Z,55.09
2016-12-14T06:21:45.413Z,55.29
2016-12-14T06:22:11.018Z,55.09
2016-12-14T06:22:36.656Z,55
2016-12-14T06:23:02.220Z,55.19
2016-12-14T06:23:27.888Z,55.77
2016-12-14T06:23:53.485Z,55.96
2016-12-14T06:24:19.042Z,53.74
2016-12-14T06:24:44.618Z,52.78
2016-12-14T06:25:11.251Z,51.72
2016-12-14T06:25:36.387Z,52.87
2016-12-14T06:26:01.955Z,53.07
2016-12-14T06:26:27.541Z,53.27
2016-12-14T06:26:53.104Z,53.27
2016-12-14T06:27:18.764Z,53.07
2016-12-14T06:27:44.312Z,53.07
2016-12-14T06:28:09.872Z,52.69
2016-12-14T06:28:35.432Z,52.69
2016-12-14T06:29:01.137Z,53.17
2016-12-14T06:29:26.724Z,53.17
2016-12-14T06:29:52.291Z,53.74
2016-12-14T06:30:17.862Z,54.58
2016-12-14T06:30:43.472Z,54.03
2016-12-14T06:31:09.027Z,53.65
2016-12-14T06:31:34.583Z,53.74
2016-12-14T06:32:00.155Z,53.84
2016-12-14T06:32:25.713Z,54.13
2016-12-14T06:32:51.279Z,54.61
2016-12-14T06:33:16.841Z,54.9
2016-12-14T06:33:42.411Z,54.8
2016-12-14T06:34:08.066Z,55.19
2016-12-14T06:34:33.677Z,54.8
2016-12-14T06:34:59.239Z,55.29
2016-12-14T06:35:24.806Z,55.29
2016-12-14T06:35:50.373Z,55.09
2016-12-14T06:36:15.927Z,55.19
2016-12-14T06:36:41.532Z,55
2016-12-14T06:37:07.109Z,54.52
2016-12-14T06:37:32.674Z,54.32
2016-12-14T06:37:58.243Z,54.52
2016-12-14T06:38:23.834Z,54.61
2016-12-14T06:38:49.397Z,54.71
2016-12-14T06:39:15.087Z,54.8
2016-12-14T06:39:40.684Z,54.42
2016-12-14T06:40:06.233Z,54.61
2016-12-14T06:40:31.795Z,54.32
2016-12-14T06:40:57.353Z,54.8
2016-12-14T06:41:22.937Z,55.09
2016-12-14T06:41:48.501Z,55.19
2016-12-14T06:42:14.060Z,55.29
2016-12-14T06:42:39.621Z,55
2016-12-14T06:43:05.306Z,55.19
2016-12-14T06:43:30.893Z,55.19
2016-12-14T06:43:56.435Z,54.9
2016-12-14T06:44:22.086Z,54.71
2016-12-14T06:44:47.643Z,54.71
2016-12-14T06:45:13.206Z,54.61
2016-12-14T06:45:38.775Z,54.8
2016-12-14T06:46:04.338Z,55
2016-12-14T06:46:29.898Z,55.09
2016-12-14T06:46:55.465Z,55.38
2016-12-14T06:47:21.016Z,55.09
2016-12-14T06:47:46.707Z,55.19
2016-12-14T06:48:12.287Z,55.29
2016-12-14T06:48:37.841Z,55.09
2016-12-14T06:49:03.382Z,55.19
2016-12-14T06:49:29.049Z,55.09
2016-12-14T06:49:54.646Z,55.09
2016-12-14T06:50:20.198Z,55.09
2016-12-14T06:50:45.748Z,55.09
2016-12-14T06:51:11.451Z,55.09
2016-12-14T06:51:37.032Z,55.38
2016-12-14T06:52:02.586Z,55.48
2016-12-14T06:52:28.137Z,55.29
2016-12-14T06:52:53.821Z,55.38
2016-12-14T06:53:19.377Z,55.48
2016-12-14T06:53:45.052Z,55.48
2016-12-14T06:54:10.614Z,55.29
2016-12-14T06:54:36.164Z,55.09
2016-12-14T06:55:01.718Z,55.38
2016-12-14T06:55:27.285Z,55.48
2016-12-14T06:55:52.878Z,55.38
2016-12-14T06:56:18.431Z,54.9
2016-12-14T06:56:43.976Z,55.19
2016-12-14T06:57:09.542Z,55.19
2016-12-14T06:57:35.244Z,54.9
2016-12-14T06:58:00.825Z,55.09
2016-12-14T06:58:26.398Z,55.29
2016-12-14T06:58:52.044Z,54.9
2016-12-14T06:59:17.589Z,55.29
2016-12-14T06:59:43.161Z,55.38
2016-12-14T07:00:08.739Z,55.48
2016-12-14T07:01:22.203Z,55.29
2016-12-14T07:01:47.768Z,55.09
2016-12-14T07:02:13.334Z,55.48
2016-12-14T07:02:38.892Z,55.38
2016-12-14T07:03:04.490Z,55.29
2016-12-14T07:03:30.034Z,55.29
2016-12-14T07:03:55.633Z,55.48
2016-12-14T07:04:21.231Z,55.38
2016-12-14T07:04:46.750Z,55.57
2016-12-14T07:05:12.409Z,55.67
2016-12-14T07:05:37.972Z,55.48
2016-12-14T07:06:03.545Z,55.48
2016-12-14T07:06:29.233Z,55.19
2016-12-14T07:06:54.794Z,55.29
2016-12-14T07:07:20.369Z,55.19
2016-12-14T07:07:45.934Z,55.29
2016-12-14T07:08:11.489Z,55.29
2016-12-14T07:08:37.051Z,55.09
2016-12-14T07:09:02.603Z,55.48
2016-12-14T07:09:28.188Z,55.48
2016-12-14T07:09:53.755Z,55.48
2016-12-14T07:10:19.412Z,55.57
2016-12-14T07:10:44.955Z,55.48
2016-12-14T07:11:10.512Z,55.48
2016-12-14T07:11:36.078Z,55.29
2016-12-14T07:12:01.642Z,55.29
2016-12-14T07:12:27.197Z,55.29
2016-12-14T07:12:52.759Z,55.19
2016-12-14T07:13:18.311Z,55.09
2016-12-14T07:13:43.868Z,55.09
2016-12-14T07:14:09.576Z,55.09
2016-12-14T07:14:35.126Z,55.48
2016-12-14T07:15:00.679Z,55.48
2016-12-14T07:15:26.241Z,55.29
2016-12-14T07:15:51.798Z,55.48
2016-12-14T07:16:17.392Z,54.9
2016-12-14T07:16:42.952Z,55.19
2016-12-14T07:17:08.512Z,55
2016-12-14T07:17:34.061Z,55.09
2016-12-14T07:17:59.678Z,55.09
2016-12-14T07:18:25.252Z,55.19
2016-12-14T07:18:50.904Z,55.19
2016-12-14T07:19:16.510Z,54.9
2016-12-14T07:19:42.060Z,55.19
2016-12-14T07:20:07.628Z,55.29
2016-12-14T07:20:33.186Z,55.19
2016-12-14T07:20:58.784Z,55.29
2016-12-14T07:21:24.346Z,55.09
2016-12-14T07:21:49.891Z,55.38
2016-12-14T07:22:15.480Z,55.48
2016-12-14T07:22:41.040Z,55.57
2016-12-14T07:23:06.571Z,55.48
2016-12-14T07:23:32.146Z,55.38
2016-12-14T07:23:57.689Z,55.38
2016-12-14T07:24:23.254Z,55.38
2016-12-14T07:24:48.830Z,55.38
2016-12-14T07:25:14.445Z,55.48
2016-12-14T07:25:39.996Z,55.57
2016-12-14T07:26:05.540Z,55.48
2016-12-14T07:26:31.246Z,55.09
2016-12-14T07:26:56.781Z,55.29
2016-12-14T07:27:22.342Z,55.09
2016-12-14T07:27:47.885Z,55.57
2016-12-14T07:28:13.438Z,55.38
2016-12-14T07:28:39.052Z,55.57
2016-12-14T07:29:04.592Z,55.29
2016-12-14T07:29:30.148Z,55.38
2016-12-14T07:29:55.838Z,55.57
2016-12-14T07:30:21.457Z,55.38
2016-12-14T07:30:47.041Z,55.57
2016-12-14T07:31:12.628Z,55.48
2016-12-14T07:31:38.230Z,55.38
2016-12-14T07:32:03.785Z,55.57
2016-12-14T07:32:29.339Z,55.38
2016-12-14T07:32:55.023Z,55.09
2016-12-14T07:33:20.675Z,55.19
2016-12-14T07:33:46.225Z,55.29
2016-12-14T07:34:11.783Z,55.19
2016-12-14T07:34:37.458Z,54.9
2016-12-14T07:35:03.045Z,55.29
2016-12-14T07:35:28.569Z,55
2016-12-14T07:35:54.222Z,55.09
2016-12-14T07:36:19.839Z,55.09
2016-12-14T07:36:45.398Z,55.19
2016-12-14T07:37:11.021Z,55
2016-12-14T07:37:36.598Z,55.09
2016-12-14T07:38:02.180Z,55.09
2016-12-14T07:38:27.895Z,55.29
2016-12-14T07:38:53.477Z,55.19
2016-12-14T07:39:19.088Z,55
2016-12-14T07:39:44.643Z,55.09
2016-12-14T07:40:10.280Z,55.19
2016-12-14T07:40:35.846Z,55
2016-12-14T07:41:01.406Z,55
2016-12-14T07:41:26.981Z,55.09
2016-12-14T07:41:52.550Z,55.09
2016-12-14T07:42:18.106Z,55
2016-12-14T07:42:43.709Z,55
2016-12-14T07:43:09.411Z,55.09
2016-12-14T07:43:34.985Z,55.19
2016-12-14T07:44:00.544Z,55
2016-12-14T07:44:26.108Z,55.19
2016-12-14T07:44:51.771Z,55.09
2016-12-14T07:45:17.342Z,55.09
2016-12-14T07:45:42.894Z,55.19
2016-12-14T07:46:08.469Z,55
2016-12-14T07:46:34.019Z,55.09
2016-12-14T07:46:59.621Z,55
2016-12-14T07:47:25.178Z,55.19
2016-12-14T07:47:50.798Z,55.09
2016-12-14T07:48:16.400Z,55
2016-12-14T07:48:41.941Z,55.48
2016-12-14T07:49:07.532Z,55.09
2016-12-14T07:49:33.058Z,55.29
2016-12-14T07:49:58.625Z,55
2016-12-14T07:50:24.193Z,54.8
2016-12-14T07:50:49.800Z,55.29
2016-12-14T07:51:15.351Z,55.09
2016-12-14T07:51:40.919Z,54.9
2016-12-14T07:52:06.594Z,55
2016-12-14T07:52:32.141Z,55.29
2016-12-14T07:52:57.787Z,55.29
2016-12-14T07:53:23.332Z,55.19
2016-12-14T07:53:48.906Z,55
2016-12-14T07:54:14.459Z,55.09
2016-12-14T07:54:40.017Z,55.09
2016-12-14T07:55:05.573Z,55.19
2016-12-14T07:55:31.213Z,55.19
2016-12-14T07:55:56.765Z,55.19
2016-12-14T07:56:22.322Z,55.38
2016-12-14T07:56:47.875Z,55.29
2016-12-14T07:57:13.525Z,55.09
2016-12-14T07:57:39.088Z,55
2016-12-14T07:58:04.765Z,55.29
2016-12-14T07:58:30.451Z,55.29
2016-12-14T07:58:56.003Z,55.29
2016-12-14T07:59:21.568Z,55.09
2016-12-14T07:59:47.218Z,55.19
2016-12-14T08:00:12.772Z,55.19
2016-12-14T08:00:38.326Z,55.09
2016-12-14T08:01:04.057Z,55
2016-12-14T08:01:29.605Z,55.29
2016-12-14T08:01:55.187Z,54.9
2016-12-14T08:02:20.747Z,55.19
2016-12-14T08:02:46.389Z,55
2016-12-14T08:03:11.937Z,55.09
2016-12-14T08:03:37.495Z,55.09
2016-12-14T08:04:03.155Z,55.29
2016-12-14T08:04:28.736Z,55
2016-12-14T08:04:54.299Z,55.09
2016-12-14T08:05:19.846Z,55.09
2016-12-14T08:05:45.597Z,55.09
2016-12-14T08:06:11.149Z,55.29
2016-12-14T08:06:36.707Z,55.09
2016-12-14T08:07:02.288Z,55
2016-12-14T08:07:27.825Z,55
2016-12-14T08:07:53.378Z,55.19
2016-12-14T08:08:18.984Z,55.09
2016-12-14T08:08:44.554Z,55.09
2016-12-14T08:09:10.118Z,55.09
2016-12-14T08:09:35.732Z,55.19
2016-12-14T08:10:01.304Z,55.29
2016-12-14T08:10:26.974Z,55.29
2016-12-14T08:10:52.565Z,55.38
2016-12-14T08:11:18.147Z,54.8
2016-12-14T08:11:43.686Z,55.09
2016-12-14T08:12:09.424Z,55.19
2016-12-14T08:12:34.989Z,55.29
2016-12-14T08:13:00.535Z,55
2016-12-14T08:13:26.088Z,54.8
2016-12-14T08:13:51.628Z,54.8
2016-12-14T08:14:17.198Z,54.71
2016-12-14T08:14:42.777Z,54.9
2016-12-14T08:15:08.343Z,55.19
2016-12-14T08:15:33.899Z,55.09
2016-12-14T08:15:59.462Z,55.29
2016-12-14T08:16:25.031Z,55.29
2016-12-14T08:16:50.595Z,55.09
2016-12-14T08:17:16.147Z,55.19
2016-12-14T08:17:41.690Z,55.09
2016-12-14T08:18:07.326Z,55.09
2016-12-14T08:18:32.893Z,55.09
2016-12-14T08:18:58.501Z,55.09
2016-12-14T08:19:24.064Z,55.09
2016-12-14T08:19:49.700Z,55.19
2016-12-14T08:20:15.261Z,55
2016-12-14T08:20:40.951Z,55
2016-12-14T08:21:06.500Z,55.09
2016-12-14T08:21:32.067Z,54.8
2016-12-14T08:21:57.665Z,55.19
2016-12-14T08:22:23.286Z,55.29
2016-12-14T08:22:48.848Z,55
2016-12-14T08:23:14.404Z,55.38
2016-12-14T08:23:39.952Z,55
2016-12-14T08:24:05.505Z,55
2016-12-14T08:24:31.134Z,55
2016-12-14T08:24:56.788Z,54.8
2016-12-14T08:25:22.334Z,54.8
2016-12-14T08:25:47.949Z,55.29
2016-12-14T08:26:13.502Z,55.29
2016-12-14T08:26:39.083Z,55.29
2016-12-14T08:27:04.699Z,55
2016-12-14T08:27:30.355Z,55.29
2016-12-14T08:27:55.905Z,55
2016-12-14T08:28:21.451Z,54.71
2016-12-14T08:28:47.147Z,54.61
2016-12-14T08:29:12.721Z,54.8
2016-12-14T08:29:38.310Z,55.19
2016-12-14T08:30:03.944Z,54.71
2016-12-14T08:30:29.548Z,54.61
2016-12-14T08:30:55.118Z,54.71
2016-12-14T08:31:20.675Z,54.71
2016-12-14T08:31:46.316Z,54.71
2016-12-14T08:32:11.870Z,54.9
2016-12-14T08:32:37.465Z,54.9
2016-12-14T08:33:03.159Z,54.61
2016-12-14T08:33:28.808Z,54.61
2016-12-14T08:33:54.374Z,54.61
2016-12-14T08:34:19.940Z,54.9
2016-12-14T08:34:45.533Z,54.9
2016-12-14T08:35:11.125Z,54.71
2016-12-14T08:35:36.686Z,54.8
2016-12-14T08:36:02.407Z,54.71
2016-12-14T08:36:27.975Z,54.8
2016-12-14T08:36:53.532Z,54.61
2016-12-14T08:37:19.131Z,55
2016-12-14T08:37:44.707Z,54.8
2016-12-14T08:38:10.262Z,54.9
2016-12-14T08:38:35.836Z,54.9
2016-12-14T08:39:01.395Z,54.61
2016-12-14T08:39:26.961Z,54.61
2016-12-14T08:39:52.513Z,54.61
2016-12-14T08:40:18.093Z,54.9
2016-12-14T08:40:43.647Z,54.71
2016-12-14T08:41:09.305Z,54.71
2016-12-14T08:41:34.902Z,54.71
2016-12-14T08:42:00.474Z,54.61
2016-12-14T08:42:26.119Z,54.9
2016-12-14T08:42:51.703Z,54.8
2016-12-14T08:43:17.270Z,54.71
2016-12-14T08:43:42.810Z,54.8
2016-12-14T08:44:08.376Z,54.8
2016-12-14T08:44:33.936Z,54.71
2016-12-14T08:44:59.532Z,54.9
2016-12-14T08:45:25.087Z,55
2016-12-14T08:45:50.651Z,54.8
2016-12-14T08:46:16.300Z,54.61
2016-12-14T08:46:41.903Z,54.8
2016-12-14T08:47:07.460Z,54.61
2016-12-14T08:47:33.044Z,54.71
2016-12-14T08:47:58.684Z,54.8
2016-12-14T08:48:24.257Z,54.8
2016-12-14T08:48:49.813Z,54.71
2016-12-14T08:49:15.411Z,54.8
2016-12-14T08:49:40.966Z,54.71
2016-12-14T08:50:06.531Z,54.8
2016-12-14T08:50:32.102Z,54.8
2016-12-14T08:50:57.660Z,54.71
2016-12-14T08:51:23.223Z,54.71
2016-12-14T08:51:48.798Z,54.9
2016-12-14T08:52:14.361Z,55
2016-12-14T08:52:39.908Z,54.8
2016-12-14T08:53:05.463Z,54.9
2016-12-14T08:53:31.048Z,54.8
2016-12-14T08:53:56.657Z,54.9
2016-12-14T08:54:22.220Z,54.8
2016-12-14T08:54:47.856Z,54.8
2016-12-14T08:55:13.429Z,54.9
2016-12-14T08:55:39.002Z,54.9
2016-12-14T08:56:04.680Z,54.8
2016-12-14T08:56:30.250Z,54.71
2016-12-14T08:56:55.785Z,54.8
2016-12-14T08:57:21.344Z,54.71
2016-12-14T08:57:46.899Z,54.8
2016-12-14T08:58:12.457Z,54.71
2016-12-14T08:58:38.004Z,54.61
2016-12-14T08:59:03.564Z,54.61
2016-12-14T08:59:29.174Z,54.42
2016-12-14T08:59:54.715Z,54.71
2016-12-14T09:00:20.421Z,54.42
2016-12-14T09:00:45.976Z,54.71
2016-12-14T09:01:11.549Z,54.71
2016-12-14T09:01:37.120Z,54.9
2016-12-14T09:02:02.683Z,54.61
2016-12-14T09:02:28.255Z,54.32
2016-12-14T09:02:53.822Z,54.9
2016-12-14T09:03:19.370Z,54.71
2016-12-14T09:03:45.007Z,54.42
2016-12-14T09:04:10.628Z,54.32
2016-12-14T09:04:36.204Z,54.42
2016-12-14T09:05:01.775Z,54.61
2016-12-14T09:05:27.410Z,54.32
2016-12-14T09:05:52.985Z,54.32
2016-12-14T09:06:19.402Z,54.32
2016-12-14T09:06:44.945Z,54.42
2016-12-14T09:07:10.557Z,54.42
2016-12-14T09:07:36.179Z,54.42
2016-12-14T09:08:01.741Z,54.42
2016-12-14T09:08:27.340Z,54.42
2016-12-14T09:08:52.916Z,54.61
2016-12-14T09:09:18.490Z,54.71
2016-12-14T09:09:44.055Z,54.61
2016-12-14T09:10:09.628Z,54.61
2016-12-14T09:10:35.163Z,54.42
2016-12-14T09:11:00.737Z,54.61
2016-12-14T09:11:26.298Z,54.61
2016-12-14T09:11:51.934Z,54.42
2016-12-14T09:12:17.539Z,54.61
2016-12-14T09:12:43.099Z,54.61
2016-12-14T09:13:08.643Z,54.71
2016-12-14T09:13:34.328Z,54.42
2016-12-14T09:13:59.877Z,54.42
2016-12-14T09:14:25.512Z,54.42
2016-12-14T09:14:51.188Z,54.61
2016-12-14T09:15:16.769Z,54.71
2016-12-14T09:15:42.315Z,54.42
2016-12-14T09:16:07.848Z,54.71
2016-12-14T09:16:33.577Z,54.42
2016-12-14T09:16:59.139Z,54.42
2016-12-14T09:17:24.687Z,54.71
2016-12-14T09:17:50.329Z,54.42
2016-12-14T09:18:15.919Z,54.32
2016-12-14T09:18:41.483Z,54.32
2016-12-14T09:19:07.140Z,54.42
2016-12-14T09:19:32.687Z,54.32
2016-12-14T09:19:58.257Z,54.22
2016-12-14T09:20:23.888Z,54.42
2016-12-14T09:20:49.653Z,54.42
2016-12-14T09:21:15.213Z,54.71
2016-12-14T09:21:40.787Z,54.42
2016-12-14T09:22:06.421Z,54.71
2016-12-14T09:22:31.984Z,54.61
2016-12-14T09:22:57.533Z,54.42
2016-12-14T09:23:23.203Z,54.42
2016-12-14T09:23:48.801Z,54.32
2016-12-14T09:24:14.334Z,54.32
2016-12-14T09:24:39.893Z,54.22
2016-12-14T09:25:05.441Z,54.61
2016-12-14T09:25:31.001Z,54.61
2016-12-14T09:25:56.552Z,54.32
2016-12-14T09:26:22.112Z,54.52
2016-12-14T09:26:47.673Z,54.42
2016-12-14T09:27:13.251Z,54.61
2016-12-14T09:27:38.896Z,54.42
2016-12-14T09:28:04.448Z,54.42
2016-12-14T09:28:30.022Z,54.42
2016-12-14T09:28:55.565Z,54.32
2016-12-14T09:29:21.128Z,54.32
2016-12-14T09:29:46.715Z,54.32
2016-12-14T09:30:12.263Z,54.42
2016-12-14T09:30:37.811Z,54.32
2016-12-14T09:31:03.453Z,54.42
2016-12-14T09:31:29.086Z,54.32
2016-12-14T09:31:54.683Z,54.32
2016-12-14T09:32:20.315Z,54.42
2016-12-14T09:32:45.872Z,54.42
2016-12-14T09:33:11.427Z,54.42
2016-12-14T09:33:37.072Z,54.42
2016-12-14T09:34:02.611Z,54.22
2016-12-14T09:34:28.153Z,54.32
2016-12-14T09:34:53.712Z,54.32
2016-12-14T09:35:19.291Z,54.32